Time;durP1;ratioP1;P1;durP2;ratioP2;P2;SDS_P1;SDS_P2;PMS_P1;PMS_P2;Temp;Humidity;BMP_temperature;BMP_pressure;BME280_temperature;BME280_humidity;BME280_pressure;Samples;Min_cycle;Max_cycle;Signal;HPM_P1;HPM_P2
2022/09/05 17:56:37;;;;;;;14.38;4.75;;;22.80;85.40;;;22.42;65.44;100612.41;5087556;27;20193;-81
2022/09/05 17:59:23;;;;;;;10.32;3.70;;;22.80;86.20;;;22.45;65.46;100600.78;5063844;28;20044;-81
2022/09/05 18:02:31;;;;;;;8.52;3.42;;;22.80;86.20;;;22.45;65.46;100600.78;5058491;28;20120;-82
2022/09/05 18:04:59;;;;;;;5.25;2.80;;;22.90;86.40;;;-147.18;100.00;67318.16;5056996;28;20159;-79
2022/09/05 18:08:52;;;;;;;10.80;2.97;;;23.00;86.70;;;-147.18;100.00;67318.16;5057328;28;20045;-82
2022/09/05 18:12:40;;;;;;;7.22;2.38;;;23.10;86.20;;;-147.18;100.00;67318.16;5058343;28;20037;-80
2022/09/05 18:16:14;;;;;;;3.70;2.05;;;23.30;84.90;;;-147.18;100.00;67318.16;5059070;28;20099;-80
2022/09/05 18:19:56;;;;;;;4.18;2.50;;;23.40;84.10;;;-147.18;100.00;67318.16;5057813;28;20095;-80
2022/09/05 18:23:37;;;;;;;8.35;2.80;;;23.50;84.30;;;-147.18;100.00;67318.16;5063736;28;20045;-80
2022/09/05 18:27:20;;;;;;;5.07;2.70;;;23.50;83.60;;;-147.18;100.00;67318.16;5061695;28;20048;-80
2022/09/05 18:30:52;;;;;;;7.93;2.90;;;23.60;83.70;;;-147.18;100.00;67318.16;5060458;28;20072;-80
2022/09/05 18:34:37;;;;;;;8.05;2.80;;;23.60;83.80;;;-147.18;100.00;67318.16;5060956;28;20060;-80
2022/09/05 18:39:12;;;;;;;9.18;3.13;;;23.60;83.70;;;-147.18;100.00;67318.16;5054494;28;20037;-80
2022/09/05 18:42:40;;;;;;;5.20;2.85;;;23.60;83.40;;;-147.18;100.00;67318.16;5061802;28;20087;-80
2022/09/05 18:46:13;;;;;;;8.55;2.80;;;23.60;83.70;;;-147.18;100.00;67318.16;5061580;28;20041;-79
2022/09/05 18:49:42;;;;;;;8.07;3.40;;;23.60;84.10;;;-147.18;100.00;67318.16;5061890;28;20564;-80
2022/09/05 18:53:17;;;;;;;8.40;3.05;;;23.60;84.30;;;-147.18;100.00;67318.16;5061786;28;20037;-79
2022/09/05 18:56:52;;;;;;;6.88;3.50;;;23.60;84.30;;;-147.18;100.00;67318.16;5056642;28;20033;-80
2022/09/05 19:00:27;;;;;;;5.00;3.28;;;23.60;84.60;;;-147.18;100.00;67318.16;5062333;28;20060;-80
2022/09/05 19:03:58;;;;;;;5.82;2.90;;;23.50;84.70;;;-147.18;100.00;67318.16;5062627;28;20130;-80
2022/09/05 19:07:28;;;;;;;7.43;4.20;;;23.50;84.80;;;-147.18;100.00;67318.16;5056692;28;20049;-80
2022/09/05 19:11:06;;;;;;;9.82;4.65;;;23.50;84.70;;;-147.18;100.00;67318.16;5043603;28;20071;-80
2022/09/05 19:14:42;;;;;;;8.23;4.68;;;23.50;84.70;;;-147.18;100.00;67318.16;5039682;28;20518;-80
2022/09/05 19:18:16;;;;;;;8.55;4.40;;;23.50;84.40;;;-147.18;100.00;67318.16;5042021;28;20045;-80
2022/09/05 19:22:03;;;;;;;11.07;4.13;;;23.40;84.20;;;-147.18;100.00;67318.16;5041052;28;20052;-80
2022/09/05 19:25:34;;;;;;;8.05;4.40;;;23.40;84.40;;;-147.18;100.00;67318.16;5036939;28;20045;-80
2022/09/05 19:29:14;;;;;;;6.78;4.28;;;23.40;85.10;;;-147.18;100.00;67318.16;5047252;28;20049;-80
2022/09/05 19:32:43;;;;;;;9.32;4.35;;;23.40;85.30;;;-147.18;100.00;67318.16;5046748;28;20045;-80
2022/09/05 19:36:16;;;;;;;7.90;4.05;;;23.30;85.40;;;-147.18;100.00;67318.16;5047398;28;20502;-80
2022/09/05 19:39:45;;;;;;;7.30;3.78;;;23.30;85.50;;;-147.18;100.00;67318.16;5044449;28;20040;-80
2022/09/05 19:43:16;;;;;;;7.80;3.72;;;23.20;85.40;;;-147.18;100.00;67318.16;5043470;28;20041;-80
2022/09/05 19:46:47;;;;;;;8.50;4.03;;;23.20;85.60;;;-147.18;100.00;67318.16;5048046;28;20048;-80
2022/09/05 19:50:13;;;;;;;6.13;3.47;;;23.20;86.10;;;-147.18;100.00;67318.16;5045986;28;20041;-82
2022/09/05 19:53:45;;;;;;;6.15;3.83;;;23.10;86.70;;;-147.18;100.00;67318.16;5052023;28;20044;-80
2022/09/05 19:57:14;;;;;;;7.25;4.00;;;23.10;86.80;;;-147.18;100.00;67318.16;5046042;28;20045;-81
2022/09/05 20:00:44;;;;;;;7.15;4.22;;;23.00;86.60;;;-147.18;100.00;67318.16;5047581;28;20529;-82
2022/09/05 20:04:19;;;;;;;9.27;3.90;;;23.00;86.80;;;-147.18;100.00;67318.16;5046621;28;20041;-80
2022/09/05 20:07:50;;;;;;;7.13;3.70;;;23.00;87.10;;;-147.18;100.00;67318.16;5044307;28;20139;-80
2022/09/05 20:11:25;;;;;;;9.17;4.37;;;22.90;86.90;;;-147.18;100.00;67318.16;5047236;28;20041;-81
2022/09/05 20:14:51;;;;;;;7.63;3.83;;;22.90;87.10;;;-147.18;100.00;67318.16;5040060;28;20103;-80
2022/09/05 20:18:22;;;;;;;7.13;4.13;;;22.80;87.60;;;-147.18;100.00;67318.16;5040458;28;20485;-80
2022/09/05 20:21:51;;;;;;;6.88;3.67;;;22.80;88.40;;;-147.18;100.00;67318.16;5040865;28;20034;-81
2022/09/05 20:25:20;;;;;;;8.63;3.67;;;22.80;88.80;;;-147.18;100.00;67318.16;5038045;28;20118;-80
2022/09/05 20:28:48;;;;;;;8.65;3.60;;;22.80;88.90;;;-147.18;100.00;67318.16;5041091;28;20054;-80
2022/09/05 20:32:17;;;;;;;13.73;4.28;;;22.80;88.90;;;-147.18;100.00;67318.16;5039288;28;20128;-81
2022/09/05 20:35:46;;;;;;;8.02;4.00;;;22.70;88.90;;;-147.18;100.00;67318.16;5046250;28;20470;-81
2022/09/05 20:39:28;;;;;;;7.43;3.70;;;22.70;89.00;;;-147.18;100.00;67318.16;5046775;28;20124;-77
2022/09/05 20:42:55;;;;;;;6.82;3.55;;;22.60;88.80;;;-147.18;100.00;67318.16;5042416;28;20083;-77
2022/09/05 20:46:46;;;;;;;6.22;3.95;;;22.60;89.00;;;-147.18;100.00;67318.16;5044234;28;20068;-77
2022/09/05 20:50:22;;;;;;;10.45;3.65;;;22.50;89.10;;;-147.18;100.00;67318.16;5048936;28;20067;-77
2022/09/05 20:53:50;;;;;;;7.15;3.63;;;22.50;89.30;;;-147.18;100.00;67318.16;5048636;28;20146;-77
2022/09/05 20:57:19;;;;;;;9.07;3.88;;;22.40;89.50;;;-147.18;100.00;67318.16;5041742;28;20383;-77
2022/09/05 21:00:46;;;;;;;9.13;3.90;;;22.40;89.90;;;-147.18;100.00;67318.16;5056006;28;20188;-77
2022/09/05 21:04:31;;;;;;;8.02;4.13;;;22.40;90.00;;;-147.18;100.00;67318.16;5039998;28;20061;-77
2022/09/05 21:08:15;;;;;;;8.18;3.70;;;22.40;90.20;;;-147.18;100.00;67318.16;5041428;28;20794;-77
2022/09/05 21:11:49;;;;;;;7.82;4.05;;;22.30;90.80;;;-147.18;100.00;67318.16;5039913;28;20045;-77
2022/09/05 21:15:19;;;;;;;6.60;4.10;;;22.30;91.10;;;-147.18;100.00;67318.16;5042189;28;20068;-77
2022/09/05 21:18:45;;;;;;;7.68;4.60;;;22.30;91.20;;;-147.18;100.00;67318.16;5043441;28;20037;-77
2022/09/05 21:22:24;;;;;;;9.57;4.75;;;22.20;91.30;;;-147.18;100.00;67318.16;5042398;28;20045;-77
2022/09/05 21:26:22;;;;;;;8.95;3.78;;;22.20;91.50;;;-147.18;100.00;67318.16;5045278;28;20037;-77
2022/09/05 21:34:01;;;;;;;8.90;4.00;;;22.10;91.40;;;-147.18;100.00;67318.16;5007610;28;20069;-77
2022/09/05 21:37:29;;;;;;;5.97;3.83;;;22.00;91.70;;;-147.18;100.00;67318.16;5008651;28;20549;-76
2022/09/05 21:40:54;;;;;;;7.90;3.90;;;22.00;92.00;;;-147.18;100.00;67318.16;5008250;28;20068;-76
2022/09/05 21:44:20;;;;;;;7.80;4.00;;;21.90;92.20;;;-147.18;100.00;67318.16;5017108;28;20092;-76
2022/09/05 21:47:48;;;;;;;6.20;3.55;;;21.90;92.70;;;-147.18;100.00;67318.16;5009219;28;20505;-77
2022/09/05 21:51:15;;;;;;;6.75;4.00;;;21.90;92.50;;;-147.18;100.00;67318.16;5009521;28;20053;-75
2022/09/05 21:54:44;;;;;;;6.05;3.65;;;21.90;92.60;;;-147.18;100.00;67318.16;5010533;28;20129;-77
2022/09/05 21:58:16;;;;;;;6.38;3.60;;;21.80;92.80;;;-147.18;100.00;67318.16;5010427;28;20042;-76
2022/09/05 22:01:41;;;;;;;6.57;3.83;;;21.70;93.00;;;-147.18;100.00;67318.16;5022776;28;20045;-77
2022/09/05 22:05:07;;;;;;;6.28;3.72;;;21.70;93.70;;;-147.18;100.00;67318.16;5008002;28;20069;-76
2022/09/05 22:08:33;;;;;;;7.03;3.85;;;21.70;93.80;;;-147.18;100.00;67318.16;5015107;28;20119;-77
2022/09/05 22:12:00;;;;;;;7.05;3.85;;;21.70;94.00;;;-147.18;100.00;67318.16;5008456;28;20070;-77
2022/09/05 22:15:30;;;;;;;8.30;4.38;;;21.70;94.30;;;-147.18;100.00;67318.16;5004358;28;20116;-77
2022/09/05 22:18:57;;;;;;;5.60;3.58;;;21.60;94.50;;;-147.18;100.00;67318.16;5008361;28;20542;-77
2022/09/05 22:22:25;;;;;;;7.88;4.13;;;21.60;94.70;;;-147.18;100.00;67318.16;5008016;28;20058;-77
2022/09/05 22:25:53;;;;;;;9.50;3.83;;;21.60;94.90;;;-147.18;100.00;67318.16;5006969;28;20038;-77
2022/09/05 22:29:23;;;;;;;6.20;3.83;;;21.60;95.00;;;-147.18;100.00;67318.16;4990044;28;20507;-77
2022/09/05 22:32:49;;;;;;;7.10;3.60;;;21.50;95.50;;;-147.18;100.00;67318.16;4990174;28;20046;-76
2022/09/05 22:36:15;;;;;;;7.55;4.10;;;21.50;95.40;;;-147.18;100.00;67318.16;5002169;28;20112;-76
2022/09/05 22:39:43;;;;;;;6.65;3.78;;;21.50;95.40;;;-147.18;100.00;67318.16;5008785;28;20410;-77
2022/09/05 22:43:10;;;;;;;5.70;3.58;;;21.50;95.30;;;-147.18;100.00;67318.16;5013710;28;20563;-77
2022/09/05 22:46:38;;;;;;;5.95;3.80;;;21.50;95.40;;;-147.18;100.00;67318.16;5017344;28;20092;-77
2022/09/05 22:50:04;;;;;;;7.32;3.83;;;21.40;95.20;;;-147.18;100.00;67318.16;5025725;28;20096;-77
2022/09/05 22:53:29;;;;;;;5.75;3.80;;;21.40;95.30;;;-147.18;100.00;67318.16;5014546;28;20076;-77
2022/09/05 22:56:56;;;;;;;6.57;3.80;;;21.40;95.30;;;-147.18;100.00;67318.16;5025516;28;20405;-77
2022/09/05 23:00:22;;;;;;;5.88;3.40;;;21.40;95.60;;;-147.18;100.00;67318.16;5015413;28;20046;-76
2022/09/05 23:03:55;;;;;;;6.85;4.00;;;21.30;96.10;;;-147.18;100.00;67318.16;5016750;28;20120;-77
2022/09/05 23:07:21;;;;;;;6.63;4.20;;;21.30;96.40;;;-147.18;100.00;67318.16;5008075;28;20108;-77
2022/09/05 23:10:46;;;;;;;9.00;4.25;;;21.30;96.40;;;-147.18;100.00;67318.16;5018806;28;20041;-76
2022/09/05 23:14:12;;;;;;;6.72;3.70;;;21.30;97.00;;;-147.18;100.00;67318.16;4993071;28;20488;-77
2022/09/05 23:17:38;;;;;;;7.35;4.40;;;21.20;96.80;;;-147.18;100.00;67318.16;5011875;28;20046;-77
2022/09/05 23:21:08;;;;;;;7.40;3.83;;;21.30;97.10;;;-147.18;100.00;67318.16;5012284;28;20120;-77
2022/09/05 23:24:37;;;;;;;8.18;4.05;;;21.20;97.20;;;-147.18;100.00;67318.16;5019075;28;20053;-77
2022/09/05 23:28:04;;;;;;;7.85;3.72;;;21.20;97.40;;;-147.18;100.00;67318.16;5011877;28;20049;-77
2022/09/05 23:31:30;;;;;;;8.70;3.70;;;21.20;97.50;;;-147.18;100.00;67318.16;5011301;28;20053;-77
2022/09/05 23:34:56;;;;;;;8.07;3.90;;;21.20;97.70;;;-147.18;100.00;67318.16;5010485;28;20046;-77
2022/09/05 23:38:23;;;;;;;10.68;4.07;;;21.20;97.80;;;-147.18;100.00;67318.16;5010892;28;20124;-76
2022/09/05 23:41:48;;;;;;;6.90;3.90;;;21.10;97.90;;;-147.18;100.00;67318.16;5019741;28;20120;-77
2022/09/05 23:45:14;;;;;;;6.43;3.92;;;21.10;98.00;;;-147.18;100.00;67318.16;5011241;28;20154;-77
2022/09/05 23:48:40;;;;;;;6.82;3.90;;;21.10;98.00;;;-147.18;100.00;67318.16;5010272;28;20053;-77
2022/09/05 23:52:07;;;;;;;8.60;4.13;;;21.10;98.20;;;-147.18;100.00;67318.16;5010511;28;20679;-77
2022/09/05 23:55:35;;;;;;;7.10;3.95;;;21.10;98.50;;;-147.18;100.00;67318.16;5010680;28;20069;-76
2022/09/05 23:59:01;;;;;;;9.45;3.88;;;21.00;98.90;;;-147.18;100.00;67318.16;5018260;28;20042;-76
